Xin Da Yang Zhou — BPKE — position and weather

sailwx.info

Track history (hours):
 
Tides and Currents Weather Stations Pressure Air Temp Water Temp Dewpoint Dewpoint Depression Visibility Wind Speed Wind Dir Waves Ship Positions

Xin Da Yang Zhou

Last reported at 2017-Dec-15 04:00 UTC. Time now 2017-Dec-15 04:29 UTC.
Position N 40°41' W 074°09'.

Length 335 m; draft 13.2 m.

Type: Ship (hazmat cat A). MMSI: 413173000.

Date/timePositionNaut miles runAvg speedWind from/ knotsBaromVisibWave heightAir tempDewpointWater temp
2017-Dec-15 04:00N 40°41' W 074°09'0 0.0
2017-Dec-15 02:21N 40°41' W 074°09'0 0.0
2017-Dec-15 00:21N 40°41' W 074°09'0 0.0
2017-Dec-14 18:30N 40°41' W 074°09'0 0.0
2017-Dec-14 18:00N 40°41' W 074°09'0 0.0
2017-Dec-14 17:24N 40°41' W 074°09'0 0.0
2017-Dec-14 16:57N 40°41' W 074°09'0 0.0
2017-Dec-14 16:27N 40°41' W 074°09'0 0.0
2017-Dec-14 16:00N 40°41' W 074°09'0 0.0
2017-Dec-14 14:55N 40°41' W 074°09'0 0.0
2017-Dec-14 14:28N 40°41' W 074°09'0 0.0
2017-Dec-14 13:52N 40°41' W 074°09'0 0.0
2017-Dec-14 13:25N 40°41' W 074°09'0 0.0
2017-Dec-14 12:43N 40°41' W 074°09'0 0.0
2017-Dec-14 12:19N 40°41' W 074°09'0 0.0
2017-Dec-14 11:55N 40°41' W 074°09'0 0.0
2017-Dec-14 11:30N 40°41' W 074°09'1 1.2
2017-Dec-14 11:00N 40°40' W 074°08'2 3.7
2017-Dec-14 10:30N 40°39' W 074°09'3 5.6
2017-Dec-14 10:00N 40°39' W 074°05'3 6.7
2017-Dec-14 09:30N 40°36' W 074°03'510.5
2017-Dec-14 09:00N 40°31' W 074°00'713.6
2017-Dec-14 08:30N 40°28' W 073°52'  
2017-Dec-09 23:28N 09°34' W 079°49'1021.0
2017-Dec-09 23:00N 09°26' W 079°54'612.2
2017-Dec-09 22:30N 09°20' W 079°55'3 6.4
2017-Dec-09 22:00N 09°17' W 079°55'0 0.3
2017-Dec-09 21:30N 09°16' W 079°55'0 0.5
2017-Dec-09 21:00N 09°16' W 079°55'0 0.2
2017-Dec-09 19:45N 09°16' W 079°55'0 0.7
2017-Dec-09 19:02N 09°15' W 079°55'0 0.2
2017-Dec-09 19:00N 09°15' W 079°55'1 1.7
2017-Dec-09 18:23N 09°15' W 079°55'35 3.7
2017-Dec-09 08:56N 08°52' W 079°28'  
Track history (hours):
 
Tides and Currents Weather Stations Pressure Air Temp Water Temp Dewpoint Dewpoint Depression Visibility Wind Speed Wind Dir Waves Ship Positions

Xin Da Yang Zhou

Last reported at 2017-Dec-15 04:00 UTC. Time now 2017-Dec-15 04:29 UTC.
Position N 40°41' W 074°09'.

Length 335 m; draft 13.2 m.

Type: Ship (hazmat cat A). MMSI: 413173000.

Date/timePositionNaut miles runAvg speedWind from/ knotsBaromVisibWave heightAir tempDewpointWater temp
2017-Dec-15 04:00N 40°41' W 074°09'0 0.0
2017-Dec-15 02:21N 40°41' W 074°09'0 0.0
2017-Dec-15 00:21N 40°41' W 074°09'0 0.0
2017-Dec-14 18:30N 40°41' W 074°09'0 0.0
2017-Dec-14 18:00N 40°41' W 074°09'0 0.0
2017-Dec-14 17:24N 40°41' W 074°09'0 0.0
2017-Dec-14 16:57N 40°41' W 074°09'0 0.0
2017-Dec-14 16:27N 40°41' W 074°09'0 0.0
2017-Dec-14 16:00N 40°41' W 074°09'0 0.0
2017-Dec-14 14:55N 40°41' W 074°09'0 0.0
2017-Dec-14 14:28N 40°41' W 074°09'0 0.0
2017-Dec-14 13:52N 40°41' W 074°09'0 0.0
2017-Dec-14 13:25N 40°41' W 074°09'0 0.0
2017-Dec-14 12:43N 40°41' W 074°09'0 0.0
2017-Dec-14 12:19N 40°41' W 074°09'0 0.0
2017-Dec-14 11:55N 40°41' W 074°09'0 0.0
2017-Dec-14 11:30N 40°41' W 074°09'1 1.2
2017-Dec-14 11:00N 40°40' W 074°08'2 3.7
2017-Dec-14 10:30N 40°39' W 074°09'3 5.6
2017-Dec-14 10:00N 40°39' W 074°05'3 6.7
2017-Dec-14 09:30N 40°36' W 074°03'510.5
2017-Dec-14 09:00N 40°31' W 074°00'713.6
2017-Dec-14 08:30N 40°28' W 073°52'  
2017-Dec-09 23:28N 09°34' W 079°49'1021.0
2017-Dec-09 23:00N 09°26' W 079°54'612.2
2017-Dec-09 22:30N 09°20' W 079°55'3 6.4
2017-Dec-09 22:00N 09°17' W 079°55'0 0.3
2017-Dec-09 21:30N 09°16' W 079°55'0 0.5
2017-Dec-09 21:00N 09°16' W 079°55'0 0.2
2017-Dec-09 19:45N 09°16' W 079°55'0 0.7
2017-Dec-09 19:02N 09°15' W 079°55'0 0.2
2017-Dec-09 19:00N 09°15' W 079°55'1 1.7
2017-Dec-09 18:23N 09°15' W 079°55'35 3.7
2017-Dec-09 08:56N 08°52' W 079°28'  

Dump ship's entire track history